Weather at Pemping Helipad

Public forecast

Using degrees Celsius for public forecast. Weather courtesy of forecast.io.

Closest aviation weather report (METAR) to Pemping Helipad

Closest report is Paya Lebar Air Base, 16.9 nm (31.2 km) NNE.

2023/03/23 04:00 (retrieved 1 hour ago)

WSAP 230400Z 01006G16KT 9999 FEW022 BKN300 32/23 Q1010

Closest aviation forecast (TAF) to Pemping Helipad

Forecast is more than 12 hours old.

Closest forecast is Aden Adde International Airport, 3,510.9 nm (6,502.2 km) W.

2023/03/22 12:54 (retrieved 16 hours ago)

TAF TAF HCMM 221100Z 2212/2318 18010KT 9999 SCT024 BECMG 2300/2303 BKN020